Terminal Aerodrome Forecast
Issued by NWS

Home | Current Version | Previous Version | Text Only | Print | Product List | Glossary On
Versions: 1 2 3 4 5 6 7 8 9 10 11 12 13 14 15 16 17 18 19 20 21 22 23 24 25 26 27 28 29 30 31 32 33 34
000
FTAK31 PANC 010924 AAA
TAFADU
TAF AMD
PADU 010924Z 0109/0206 VRB03KT P6SM OVC025
      TEMPO 0109/0113 13008G18KT OVC015
     FM011500 11012KT P6SM VCSH OVC015
     FM012200 11012G22KT 6SM -RA BR OVC007=

USA.gov is the U.S. government's official web portal to all federal, state and local government web resources and services.